11:41
Airports
History
Links
Donate
Help keep this website running!
PayPal
Bitcoin
This page is community maintained. The information is intended for PC simulator navigation or reference.
Always use approved charts for navigation.
0N6
Henderson AviationUpdated 21-May-2014
Henderson Aviation (0N6)
Felton, Delaware, United States (19943)
4
Lat/Lng:39° 0' 46.4" N / 75° 32' 2.3" W
39.012889 / -75.533972
Elevation:50'ft / 15mMSL
Declination:W011°
ID / ICAO:0N6
FAA:0N6
Runways:1
Longest:15-33
Grass 628m / 2,059ft
(Edited 2014-05-21) [ Sign in to Edit ]
Nearby Weather11:36 GMT 2018-02-20
Nearby weather at KDOV, Dover Afb located 8.8 nautical miles from 0N6
Altimeter: 30.35
Visibility: 10.0 statute miles
Wind: 11 knots (from 200°)
Temp: 13°c / 55°f
Humidity: 100.0%

METAR: KDOV 201136Z 20011KT 10SM BKN007 13/13 A3035 RMK AO2A SLP281 $

(Powered by phpweather)
Nearby VORs <50NM
Nearby NDBs
Runway 15 / 33
Dimensions:627.6 x 12.2m 2059' x 40'ft
Surface:Grass
Runway 15 [A]Runway 33 [B]
Heading:150°MH  139°TH330°MH   319°TH
Lat:
Lng:
39° 0' 53.04"N
75° 32' 9.26"W
39° 0' 37.77"N
75° 31' 52.19"W
User Notes and Comments
39° 0' 46.4" N / 75° 32' 2.3" W
Distance To
Airport ID:
Nearby Airports
(R) Johnsons 4.5 NM
DE09 NNE 32°
4 Kimbowrosa Farm 4.8 NM
DE10 SE 131°
4 Jenkins 7.7 NM
15N NNW 339°
(R) Dover Afb 8.8 NM
KDOV ( WX ) NNE 24°
4 Drummond 10.3 NM
DE11 SE 136°
(U) Chorman 12.1 NM
D74 SSW 200°
(R) Flying C 12.4 NM
DE07 NW 317°
VFR Chart
Flight Planning at SkyVector.com